sensor_id;sensor_type;location;lat;lon;timestamp;P1;durP1;ratioP1;P2;durP2;ratioP2
61036;SDS011;57313;47.040;15.498;2022-10-31T00:01:59;11.27;;;3.47;;
61036;SDS011;57313;47.040;15.498;2022-10-31T00:04:27;10.25;;;3.80;;
61036;SDS011;57313;47.040;15.498;2022-10-31T00:06:54;12.55;;;3.38;;
61036;SDS011;57313;47.040;15.498;2022-10-31T00:09:21;10.02;;;3.83;;
61036;SDS011;57313;47.040;15.498;2022-10-31T00:11:48;12.93;;;3.70;;
61036;SDS011;57313;47.040;15.498;2022-10-31T00:14:16;10.02;;;3.25;;
61036;SDS011;57313;47.040;15.498;2022-10-31T00:16:43;11.68;;;3.58;;
61036;SDS011;57313;47.040;15.498;2022-10-31T00:19:13;10.95;;;4.07;;
61036;SDS011;57313;47.040;15.498;2022-10-31T00:21:40;9.98;;;3.55;;
61036;SDS011;57313;47.040;15.498;2022-10-31T00:24:07;10.07;;;3.50;;
61036;SDS011;57313;47.040;15.498;2022-10-31T00:26:34;12.65;;;3.55;;
61036;SDS011;57313;47.040;15.498;2022-10-31T00:29:02;9.88;;;3.30;;
61036;SDS011;57313;47.040;15.498;2022-10-31T00:31:29;11.38;;;3.80;;
61036;SDS011;57313;47.040;15.498;2022-10-31T00:33:57;10.80;;;3.40;;
61036;SDS011;57313;47.040;15.498;2022-10-31T00:36:26;10.70;;;3.95;;
61036;SDS011;57313;47.040;15.498;2022-10-31T00:38:53;11.85;;;3.45;;
61036;SDS011;57313;47.040;15.498;2022-10-31T00:41:20;15.43;;;3.90;;
61036;SDS011;57313;47.040;15.498;2022-10-31T00:43:48;10.75;;;3.65;;
61036;SDS011;57313;47.040;15.498;2022-10-31T00:46:15;9.82;;;2.92;;
61036;SDS011;57313;47.040;15.498;2022-10-31T00:48:42;13.23;;;3.92;;
61036;SDS011;57313;47.040;15.498;2022-10-31T00:51:10;9.73;;;3.45;;
61036;SDS011;57313;47.040;15.498;2022-10-31T00:53:38;12.95;;;3.60;;
61036;SDS011;57313;47.040;15.498;2022-10-31T00:56:06;10.57;;;2.78;;
61036;SDS011;57313;47.040;15.498;2022-10-31T00:58:34;10.88;;;3.55;;
61036;SDS011;57313;47.040;15.498;2022-10-31T01:01:01;10.70;;;3.78;;
61036;SDS011;57313;47.040;15.498;2022-10-31T01:03:30;11.23;;;3.15;;
61036;SDS011;57313;47.040;15.498;2022-10-31T01:05:59;11.20;;;3.60;;
61036;SDS011;57313;47.040;15.498;2022-10-31T01:08:30;10.82;;;3.65;;
61036;SDS011;57313;47.040;15.498;2022-10-31T01:11:00;8.10;;;3.25;;
61036;SDS011;57313;47.040;15.498;2022-10-31T01:13:29;11.50;;;3.80;;
61036;SDS011;57313;47.040;15.498;2022-10-31T01:15:56;10.95;;;3.50;;
61036;SDS011;57313;47.040;15.498;2022-10-31T01:18:24;8.27;;;3.15;;
61036;SDS011;57313;47.040;15.498;2022-10-31T01:20:58;10.88;;;3.42;;
61036;SDS011;57313;47.040;15.498;2022-10-31T01:23:27;8.03;;;3.53;;
61036;SDS011;57313;47.040;15.498;2022-10-31T01:26:04;9.25;;;3.50;;
61036;SDS011;57313;47.040;15.498;2022-10-31T01:28:34;14.00;;;4.18;;
61036;SDS011;57313;47.040;15.498;2022-10-31T01:31:04;18.92;;;4.00;;
61036;SDS011;57313;47.040;15.498;2022-10-31T01:33:32;11.20;;;3.83;;
61036;SDS011;57313;47.040;15.498;2022-10-31T01:36:00;8.57;;;3.25;;
61036;SDS011;57313;47.040;15.498;2022-10-31T01:38:28;8.35;;;3.42;;
61036;SDS011;57313;47.040;15.498;2022-10-31T01:40:55;11.63;;;3.40;;
61036;SDS011;57313;47.040;15.498;2022-10-31T01:43:26;10.13;;;3.65;;
61036;SDS011;57313;47.040;15.498;2022-10-31T01:46:16;15.25;;;3.83;;
61036;SDS011;57313;47.040;15.498;2022-10-31T01:48:48;10.23;;;3.75;;
61036;SDS011;57313;47.040;15.498;2022-10-31T01:51:16;13.75;;;4.22;;
61036;SDS011;57313;47.040;15.498;2022-10-31T01:53:46;13.10;;;4.10;;
61036;SDS011;57313;47.040;15.498;2022-10-31T01:56:15;13.32;;;4.38;;
61036;SDS011;57313;47.040;15.498;2022-10-31T01:58:46;11.70;;;3.78;;
61036;SDS011;57313;47.040;15.498;2022-10-31T02:01:14;10.25;;;3.63;;
61036;SDS011;57313;47.040;15.498;2022-10-31T02:03:43;10.57;;;4.07;;
61036;SDS011;57313;47.040;15.498;2022-10-31T02:06:14;10.82;;;4.22;;
61036;SDS011;57313;47.040;15.498;2022-10-31T02:11:16;10.18;;;3.78;;
61036;SDS011;57313;47.040;15.498;2022-10-31T02:13:43;11.80;;;4.22;;
61036;SDS011;57313;47.040;15.498;2022-10-31T02:16:12;15.52;;;4.38;;
61036;SDS011;57313;47.040;15.498;2022-10-31T02:18:39;10.70;;;4.40;;
61036;SDS011;57313;47.040;15.498;2022-10-31T02:21:09;10.07;;;3.95;;
61036;SDS011;57313;47.040;15.498;2022-10-31T02:23:56;15.50;;;4.10;;
61036;SDS011;57313;47.040;15.498;2022-10-31T02:29:41;10.73;;;3.70;;
61036;SDS011;57313;47.040;15.498;2022-10-31T02:32:24;11.25;;;3.80;;
61036;SDS011;57313;47.040;15.498;2022-10-31T02:34:58;11.93;;;3.83;;
61036;SDS011;57313;47.040;15.498;2022-10-31T02:37:34;12.27;;;3.63;;
61036;SDS011;57313;47.040;15.498;2022-10-31T02:40:09;10.57;;;3.85;;
61036;SDS011;57313;47.040;15.498;2022-10-31T02:42:42;10.55;;;3.47;;
61036;SDS011;57313;47.040;15.498;2022-10-31T02:45:19;17.80;;;4.20;;
61036;SDS011;57313;47.040;15.498;2022-10-31T02:47:55;11.13;;;3.47;;
61036;SDS011;57313;47.040;15.498;2022-10-31T02:50:30;8.30;;;3.28;;
61036;SDS011;57313;47.040;15.498;2022-10-31T02:53:00;9.35;;;3.10;;
61036;SDS011;57313;47.040;15.498;2022-10-31T02:58:22;12.90;;;3.33;;
61036;SDS011;57313;47.040;15.498;2022-10-31T03:00:57;13.13;;;3.72;;
61036;SDS011;57313;47.040;15.498;2022-10-31T03:03:36;12.13;;;3.47;;
61036;SDS011;57313;47.040;15.498;2022-10-31T03:06:12;8.35;;;3.03;;
61036;SDS011;57313;47.040;15.498;2022-10-31T03:08:49;12.07;;;3.53;;
61036;SDS011;57313;47.040;15.498;2022-10-31T03:11:27;12.98;;;3.63;;
61036;SDS011;57313;47.040;15.498;2022-10-31T03:14:00;11.20;;;3.60;;
61036;SDS011;57313;47.040;15.498;2022-10-31T03:16:37;12.50;;;3.65;;
61036;SDS011;57313;47.040;15.498;2022-10-31T03:19:14;13.52;;;3.55;;
61036;SDS011;57313;47.040;15.498;2022-10-31T03:21:47;14.55;;;3.67;;
61036;SDS011;57313;47.040;15.498;2022-10-31T03:24:19;11.35;;;3.75;;
61036;SDS011;57313;47.040;15.498;2022-10-31T03:26:49;9.30;;;3.03;;
61036;SDS011;57313;47.040;15.498;2022-10-31T03:29:23;12.38;;;3.45;;
61036;SDS011;57313;47.040;15.498;2022-10-31T03:31:55;13.20;;;3.55;;
61036;SDS011;57313;47.040;15.498;2022-10-31T03:34:27;12.27;;;3.08;;
61036;SDS011;57313;47.040;15.498;2022-10-31T03:36:58;10.52;;;3.13;;
61036;SDS011;57313;47.040;15.498;2022-10-31T03:39:29;9.45;;;3.30;;
61036;SDS011;57313;47.040;15.498;2022-10-31T03:41:59;12.50;;;4.20;;
61036;SDS011;57313;47.040;15.498;2022-10-31T03:44:32;9.10;;;3.63;;
61036;SDS011;57313;47.040;15.498;2022-10-31T03:47:01;12.10;;;4.15;;
61036;SDS011;57313;47.040;15.498;2022-10-31T03:49:32;10.88;;;3.55;;
61036;SDS011;57313;47.040;15.498;2022-10-31T03:52:02;14.90;;;4.63;;
61036;SDS011;57313;47.040;15.498;2022-10-31T03:54:40;12.85;;;4.10;;
61036;SDS011;57313;47.040;15.498;2022-10-31T03:57:11;11.07;;;4.35;;
61036;SDS011;57313;47.040;15.498;2022-10-31T03:59:48;11.15;;;3.60;;
61036;SDS011;57313;47.040;15.498;2022-10-31T04:02:23;10.25;;;3.97;;
61036;SDS011;57313;47.040;15.498;2022-10-31T04:04:57;11.95;;;3.88;;
61036;SDS011;57313;47.040;15.498;2022-10-31T04:07:27;8.73;;;3.40;;
61036;SDS011;57313;47.040;15.498;2022-10-31T04:09:59;8.82;;;3.45;;
61036;SDS011;57313;47.040;15.498;2022-10-31T04:12:31;14.18;;;3.85;;
61036;SDS011;57313;47.040;15.498;2022-10-31T04:15:01;8.10;;;3.28;;
61036;SDS011;57313;47.040;15.498;2022-10-31T04:17:31;10.75;;;3.92;;
61036;SDS011;57313;47.040;15.498;2022-10-31T04:20:04;11.13;;;3.90;;
61036;SDS011;57313;47.040;15.498;2022-10-31T04:22:33;18.52;;;4.13;;
61036;SDS011;57313;47.040;15.498;2022-10-31T04:25:00;10.90;;;3.58;;
61036;SDS011;57313;47.040;15.498;2022-10-31T04:27:28;10.82;;;4.13;;
61036;SDS011;57313;47.040;15.498;2022-10-31T04:29:55;14.07;;;3.78;;
61036;SDS011;57313;47.040;15.498;2022-10-31T04:32:22;13.52;;;3.97;;
61036;SDS011;57313;47.040;15.498;2022-10-31T04:34:50;16.35;;;4.57;;
61036;SDS011;57313;47.040;15.498;2022-10-31T04:37:19;11.82;;;3.72;;
61036;SDS011;57313;47.040;15.498;2022-10-31T04:39:46;10.95;;;3.58;;
61036;SDS011;57313;47.040;15.498;2022-10-31T04:42:13;11.88;;;3.75;;
61036;SDS011;57313;47.040;15.498;2022-10-31T04:44:40;14.32;;;4.10;;
61036;SDS011;57313;47.040;15.498;2022-10-31T04:47:07;9.25;;;3.45;;
61036;SDS011;57313;47.040;15.498;2022-10-31T04:49:34;8.70;;;2.90;;
61036;SDS011;57313;47.040;15.498;2022-10-31T04:52:02;10.32;;;3.55;;
61036;SDS011;57313;47.040;15.498;2022-10-31T04:54:30;9.60;;;3.78;;
61036;SDS011;57313;47.040;15.498;2022-10-31T04:56:58;10.82;;;3.63;;
61036;SDS011;57313;47.040;15.498;2022-10-31T04:59:25;10.13;;;3.42;;
61036;SDS011;57313;47.040;15.498;2022-10-31T05:01:52;8.63;;;3.42;;
61036;SDS011;57313;47.040;15.498;2022-10-31T05:04:19;8.98;;;3.42;;
61036;SDS011;57313;47.040;15.498;2022-10-31T05:06:46;8.88;;;3.03;;
61036;SDS011;57313;47.040;15.498;2022-10-31T05:09:14;9.15;;;3.42;;
61036;SDS011;57313;47.040;15.498;2022-10-31T05:11:43;16.10;;;3.75;;
61036;SDS011;57313;47.040;15.498;2022-10-31T05:14:10;10.65;;;3.67;;
61036;SDS011;57313;47.040;15.498;2022-10-31T05:16:38;11.30;;;3.95;;
61036;SDS011;57313;47.040;15.498;2022-10-31T05:19:05;14.70;;;3.22;;
61036;SDS011;57313;47.040;15.498;2022-10-31T05:21:33;10.57;;;3.22;;
61036;SDS011;57313;47.040;15.498;2022-10-31T05:24:00;8.75;;;3.20;;
61036;SDS011;57313;47.040;15.498;2022-10-31T05:26:27;12.55;;;2.90;;
61036;SDS011;57313;47.040;15.498;2022-10-31T05:28:57;8.70;;;3.60;;
61036;SDS011;57313;47.040;15.498;2022-10-31T05:31:24;11.27;;;3.20;;
61036;SDS011;57313;47.040;15.498;2022-10-31T05:33:52;10.07;;;3.00;;
61036;SDS011;57313;47.040;15.498;2022-10-31T05:36:19;8.80;;;2.85;;
61036;SDS011;57313;47.040;15.498;2022-10-31T05:38:47;10.82;;;3.58;;
61036;SDS011;57313;47.040;15.498;2022-10-31T05:41:14;13.63;;;3.17;;
61036;SDS011;57313;47.040;15.498;2022-10-31T05:43:42;18.05;;;3.50;;
61036;SDS011;57313;47.040;15.498;2022-10-31T05:46:11;8.82;;;2.90;;
61036;SDS011;57313;47.040;15.498;2022-10-31T05:48:39;7.78;;;3.22;;
61036;SDS011;57313;47.040;15.498;2022-10-31T05:51:07;8.88;;;3.08;;
61036;SDS011;57313;47.040;15.498;2022-10-31T05:53:35;9.48;;;3.30;;
61036;SDS011;57313;47.040;15.498;2022-10-31T05:56:03;14.10;;;3.40;;
61036;SDS011;57313;47.040;15.498;2022-10-31T05:58:31;9.20;;;3.63;;
61036;SDS011;57313;47.040;15.498;2022-10-31T06:00:58;13.35;;;3.20;;
61036;SDS011;57313;47.040;15.498;2022-10-31T06:03:28;10.82;;;3.30;;
61036;SDS011;57313;47.040;15.498;2022-10-31T06:05:56;10.38;;;3.53;;
61036;SDS011;57313;47.040;15.498;2022-10-31T06:08:24;8.45;;;2.97;;
61036;SDS011;57313;47.040;15.498;2022-10-31T06:10:51;8.45;;;3.42;;
61036;SDS011;57313;47.040;15.498;2022-10-31T06:13:19;9.45;;;3.42;;
61036;SDS011;57313;47.040;15.498;2022-10-31T06:15:46;9.88;;;3.10;;
61036;SDS011;57313;47.040;15.498;2022-10-31T06:18:14;11.07;;;3.40;;
61036;SDS011;57313;47.040;15.498;2022-10-31T06:20:43;9.30;;;3.00;;
61036;SDS011;57313;47.040;15.498;2022-10-31T06:23:10;9.52;;;3.17;;
61036;SDS011;57313;47.040;15.498;2022-10-31T06:25:38;8.95;;;2.95;;
61036;SDS011;57313;47.040;15.498;2022-10-31T06:28:06;9.07;;;3.20;;
61036;SDS011;57313;47.040;15.498;2022-10-31T06:30:33;8.93;;;2.90;;
61036;SDS011;57313;47.040;15.498;2022-10-31T06:33:01;10.65;;;3.40;;
61036;SDS011;57313;47.040;15.498;2022-10-31T06:35:29;11.98;;;3.10;;
61036;SDS011;57313;47.040;15.498;2022-10-31T06:37:58;10.23;;;3.05;;
61036;SDS011;57313;47.040;15.498;2022-10-31T06:40:26;11.77;;;3.53;;
61036;SDS011;57313;47.040;15.498;2022-10-31T06:42:57;13.45;;;3.78;;
61036;SDS011;57313;47.040;15.498;2022-10-31T06:45:25;10.13;;;3.00;;
61036;SDS011;57313;47.040;15.498;2022-10-31T06:47:53;11.52;;;3.75;;
61036;SDS011;57313;47.040;15.498;2022-10-31T06:50:42;8.20;;;3.28;;
61036;SDS011;57313;47.040;15.498;2022-10-31T06:53:11;9.13;;;3.13;;
61036;SDS011;57313;47.040;15.498;2022-10-31T06:55:39;13.30;;;3.75;;
61036;SDS011;57313;47.040;15.498;2022-10-31T06:58:08;9.55;;;3.35;;
61036;SDS011;57313;47.040;15.498;2022-10-31T07:00:37;9.45;;;3.65;;
61036;SDS011;57313;47.040;15.498;2022-10-31T07:03:05;10.07;;;3.95;;
61036;SDS011;57313;47.040;15.498;2022-10-31T07:05:37;9.82;;;3.65;;
61036;SDS011;57313;47.040;15.498;2022-10-31T07:08:05;13.73;;;3.28;;
61036;SDS011;57313;47.040;15.498;2022-10-31T07:10:35;11.45;;;3.47;;
61036;SDS011;57313;47.040;15.498;2022-10-31T07:13:08;12.95;;;4.18;;
61036;SDS011;57313;47.040;15.498;2022-10-31T07:15:39;12.95;;;4.80;;
61036;SDS011;57313;47.040;15.498;2022-10-31T07:18:08;10.80;;;3.97;;
61036;SDS011;57313;47.040;15.498;2022-10-31T07:20:37;11.98;;;4.18;;
61036;SDS011;57313;47.040;15.498;2022-10-31T07:23:05;11.10;;;4.40;;
61036;SDS011;57313;47.040;15.498;2022-10-31T07:25:35;12.32;;;4.50;;
61036;SDS011;57313;47.040;15.498;2022-10-31T07:28:03;11.07;;;4.75;;
61036;SDS011;57313;47.040;15.498;2022-10-31T07:30:31;10.75;;;3.85;;
61036;SDS011;57313;47.040;15.498;2022-10-31T07:33:00;11.95;;;4.00;;
61036;SDS011;57313;47.040;15.498;2022-10-31T07:35:28;12.05;;;4.45;;
61036;SDS011;57313;47.040;15.498;2022-10-31T07:37:57;12.35;;;5.05;;
61036;SDS011;57313;47.040;15.498;2022-10-31T07:40:26;11.85;;;4.30;;
61036;SDS011;57313;47.040;15.498;2022-10-31T07:42:55;10.95;;;4.13;;
61036;SDS011;57313;47.040;15.498;2022-10-31T07:45:25;13.32;;;4.53;;
61036;SDS011;57313;47.040;15.498;2022-10-31T07:47:52;13.70;;;4.18;;
61036;SDS011;57313;47.040;15.498;2022-10-31T07:50:21;16.05;;;3.88;;
61036;SDS011;57313;47.040;15.498;2022-10-31T07:52:57;10.73;;;3.90;;
61036;SDS011;57313;47.040;15.498;2022-10-31T07:55:26;11.85;;;4.43;;
61036;SDS011;57313;47.040;15.498;2022-10-31T07:57:58;9.70;;;3.92;;
61036;SDS011;57313;47.040;15.498;2022-10-31T08:00:28;13.07;;;4.15;;
61036;SDS011;57313;47.040;15.498;2022-10-31T08:02:57;16.23;;;3.92;;
61036;SDS011;57313;47.040;15.498;2022-10-31T08:05:26;9.35;;;3.45;;
61036;SDS011;57313;47.040;15.498;2022-10-31T08:07:54;12.25;;;4.40;;
61036;SDS011;57313;47.040;15.498;2022-10-31T08:10:22;14.00;;;4.35;;
61036;SDS011;57313;47.040;15.498;2022-10-31T08:12:54;19.45;;;4.50;;
61036;SDS011;57313;47.040;15.498;2022-10-31T08:15:26;15.93;;;4.55;;
61036;SDS011;57313;47.040;15.498;2022-10-31T08:17:54;11.27;;;4.10;;
61036;SDS011;57313;47.040;15.498;2022-10-31T08:20:22;11.60;;;4.28;;
61036;SDS011;57313;47.040;15.498;2022-10-31T08:22:56;11.73;;;4.35;;
61036;SDS011;57313;47.040;15.498;2022-10-31T08:25:25;13.73;;;4.40;;
61036;SDS011;57313;47.040;15.498;2022-10-31T08:27:59;13.50;;;4.18;;
61036;SDS011;57313;47.040;15.498;2022-10-31T08:30:29;11.40;;;4.03;;
61036;SDS011;57313;47.040;15.498;2022-10-31T08:32:59;15.50;;;5.20;;
61036;SDS011;57313;47.040;15.498;2022-10-31T08:35:28;16.63;;;4.28;;
61036;SDS011;57313;47.040;15.498;2022-10-31T08:37:56;11.25;;;4.43;;
61036;SDS011;57313;47.040;15.498;2022-10-31T08:40:25;13.82;;;3.72;;
61036;SDS011;57313;47.040;15.498;2022-10-31T08:42:57;16.13;;;4.43;;
61036;SDS011;57313;47.040;15.498;2022-10-31T08:45:25;9.45;;;3.97;;
61036;SDS011;57313;47.040;15.498;2022-10-31T08:47:58;9.93;;;3.83;;
61036;SDS011;57313;47.040;15.498;2022-10-31T08:50:26;12.07;;;3.22;;
61036;SDS011;57313;47.040;15.498;2022-10-31T08:52:59;10.45;;;3.55;;
61036;SDS011;57313;47.040;15.498;2022-10-31T08:55:32;9.65;;;3.47;;
61036;SDS011;57313;47.040;15.498;2022-10-31T08:58:01;11.90;;;3.60;;
61036;SDS011;57313;47.040;15.498;2022-10-31T09:00:29;13.10;;;4.15;;
61036;SDS011;57313;47.040;15.498;2022-10-31T09:02:59;13.65;;;4.05;;
61036;SDS011;57313;47.040;15.498;2022-10-31T09:05:29;13.73;;;4.30;;
61036;SDS011;57313;47.040;15.498;2022-10-31T09:07:58;13.02;;;3.67;;
61036;SDS011;57313;47.040;15.498;2022-10-31T09:10:27;10.50;;;3.88;;
61036;SDS011;57313;47.040;15.498;2022-10-31T09:12:56;15.15;;;4.97;;
61036;SDS011;57313;47.040;15.498;2022-10-31T09:15:24;13.57;;;4.93;;
61036;SDS011;57313;47.040;15.498;2022-10-31T09:17:52;13.02;;;4.95;;
61036;SDS011;57313;47.040;15.498;2022-10-31T09:20:22;15.93;;;5.38;;
61036;SDS011;57313;47.040;15.498;2022-10-31T09:22:55;12.38;;;4.60;;
61036;SDS011;57313;47.040;15.498;2022-10-31T09:25:24;10.98;;;4.15;;
61036;SDS011;57313;47.040;15.498;2022-10-31T09:27:55;12.02;;;4.97;;
61036;SDS011;57313;47.040;15.498;2022-10-31T09:30:22;13.75;;;5.22;;
61036;SDS011;57313;47.040;15.498;2022-10-31T09:32:54;15.30;;;4.47;;
61036;SDS011;57313;47.040;15.498;2022-10-31T09:35:23;9.90;;;4.63;;
61036;SDS011;57313;47.040;15.498;2022-10-31T09:37:54;11.80;;;4.50;;
61036;SDS011;57313;47.040;15.498;2022-10-31T09:40:24;12.07;;;5.18;;
61036;SDS011;57313;47.040;15.498;2022-10-31T09:42:59;14.98;;;4.63;;
61036;SDS011;57313;47.040;15.498;2022-10-31T09:45:36;14.75;;;4.97;;
61036;SDS011;57313;47.040;15.498;2022-10-31T09:48:15;14.23;;;5.28;;
61036;SDS011;57313;47.040;15.498;2022-10-31T09:50:56;14.90;;;4.95;;
61036;SDS011;57313;47.040;15.498;2022-10-31T09:53:28;12.43;;;4.68;;
61036;SDS011;57313;47.040;15.498;2022-10-31T09:56:04;9.73;;;4.15;;
61036;SDS011;57313;47.040;15.498;2022-10-31T09:58:34;18.25;;;4.63;;
61036;SDS011;57313;47.040;15.498;2022-10-31T10:01:14;10.15;;;4.75;;
61036;SDS011;57313;47.040;15.498;2022-10-31T10:04:01;18.80;;;5.30;;
61036;SDS011;57313;47.040;15.498;2022-10-31T10:06:46;16.77;;;5.05;;
61036;SDS011;57313;47.040;15.498;2022-10-31T10:09:16;14.95;;;4.63;;
61036;SDS011;57313;47.040;15.498;2022-10-31T10:11:48;11.07;;;4.40;;
61036;SDS011;57313;47.040;15.498;2022-10-31T10:14:31;11.25;;;4.13;;
61036;SDS011;57313;47.040;15.498;2022-10-31T10:17:11;11.70;;;4.05;;
61036;SDS011;57313;47.040;15.498;2022-10-31T10:20:02;15.57;;;4.80;;
61036;SDS011;57313;47.040;15.498;2022-10-31T10:22:50;12.40;;;3.95;;
61036;SDS011;57313;47.040;15.498;2022-10-31T10:25:26;16.02;;;4.05;;
61036;SDS011;57313;47.040;15.498;2022-10-31T10:28:03;12.57;;;4.40;;
61036;SDS011;57313;47.040;15.498;2022-10-31T10:30:40;10.85;;;4.18;;
61036;SDS011;57313;47.040;15.498;2022-10-31T10:33:12;11.20;;;3.40;;
61036;SDS011;57313;47.040;15.498;2022-10-31T10:35:46;9.80;;;4.03;;
61036;SDS011;57313;47.040;15.498;2022-10-31T10:38:18;10.18;;;4.00;;
61036;SDS011;57313;47.040;15.498;2022-10-31T10:43:21;10.27;;;3.75;;
61036;SDS011;57313;47.040;15.498;2022-10-31T10:45:57;13.48;;;3.80;;
61036;SDS011;57313;47.040;15.498;2022-10-31T10:48:40;14.23;;;4.63;;
61036;SDS011;57313;47.040;15.498;2022-10-31T10:51:15;8.25;;;3.72;;
61036;SDS011;57313;47.040;15.498;2022-10-31T10:54:16;14.13;;;4.15;;
61036;SDS011;57313;47.040;15.498;2022-10-31T10:57:11;14.60;;;4.28;;
61036;SDS011;57313;47.040;15.498;2022-10-31T10:59:47;10.45;;;3.50;;
61036;SDS011;57313;47.040;15.498;2022-10-31T11:02:17;13.15;;;3.80;;
61036;SDS011;57313;47.040;15.498;2022-10-31T11:04:47;10.68;;;3.53;;
61036;SDS011;57313;47.040;15.498;2022-10-31T11:07:17;12.05;;;4.22;;
61036;SDS011;57313;47.040;15.498;2022-10-31T11:09:47;10.10;;;3.83;;
61036;SDS011;57313;47.040;15.498;2022-10-31T11:12:17;12.70;;;4.05;;
61036;SDS011;57313;47.040;15.498;2022-10-31T11:14:50;11.23;;;4.07;;
61036;SDS011;57313;47.040;15.498;2022-10-31T11:17:20;10.05;;;3.67;;
61036;SDS011;57313;47.040;15.498;2022-10-31T11:20:01;13.07;;;4.15;;
61036;SDS011;57313;47.040;15.498;2022-10-31T11:22:31;10.05;;;3.83;;
61036;SDS011;57313;47.040;15.498;2022-10-31T11:25:00;9.25;;;3.83;;
61036;SDS011;57313;47.040;15.498;2022-10-31T11:27:46;9.88;;;3.70;;
61036;SDS011;57313;47.040;15.498;2022-10-31T11:30:25;10.63;;;3.95;;
61036;SDS011;57313;47.040;15.498;2022-10-31T11:32:53;12.23;;;4.00;;
61036;SDS011;57313;47.040;15.498;2022-10-31T11:35:20;13.00;;;4.20;;
61036;SDS011;57313;47.040;15.498;2022-10-31T11:37:51;8.75;;;3.72;;
61036;SDS011;57313;47.040;15.498;2022-10-31T11:40:24;8.73;;;3.80;;
61036;SDS011;57313;47.040;15.498;2022-10-31T11:42:54;9.40;;;3.55;;
61036;SDS011;57313;47.040;15.498;2022-10-31T11:45:28;9.55;;;3.42;;
61036;SDS011;57313;47.040;15.498;2022-10-31T11:47:59;9.30;;;3.58;;
61036;SDS011;57313;47.040;15.498;2022-10-31T11:50:31;11.90;;;4.32;;
61036;SDS011;57313;47.040;15.498;2022-10-31T11:53:03;8.63;;;3.75;;
61036;SDS011;57313;47.040;15.498;2022-10-31T11:55:34;8.05;;;3.40;;
61036;SDS011;57313;47.040;15.498;2022-10-31T11:58:03;9.38;;;3.13;;
61036;SDS011;57313;47.040;15.498;2022-10-31T12:00:32;10.15;;;3.75;;
61036;SDS011;57313;47.040;15.498;2022-10-31T12:03:13;10.07;;;4.05;;
61036;SDS011;57313;47.040;15.498;2022-10-31T12:05:47;9.73;;;3.63;;
61036;SDS011;57313;47.040;15.498;2022-10-31T12:08:21;10.35;;;3.45;;
61036;SDS011;57313;47.040;15.498;2022-10-31T12:10:53;9.77;;;3.30;;
61036;SDS011;57313;47.040;15.498;2022-10-31T12:13:31;10.50;;;3.45;;
61036;SDS011;57313;47.040;15.498;2022-10-31T12:16:04;12.45;;;3.65;;
61036;SDS011;57313;47.040;15.498;2022-10-31T12:18:41;9.77;;;3.53;;
61036;SDS011;57313;47.040;15.498;2022-10-31T12:21:22;9.82;;;3.78;;
61036;SDS011;57313;47.040;15.498;2022-10-31T12:24:12;9.65;;;3.58;;
61036;SDS011;57313;47.040;15.498;2022-10-31T12:26:49;10.65;;;3.83;;
61036;SDS011;57313;47.040;15.498;2022-10-31T12:29:33;8.18;;;3.30;;
61036;SDS011;57313;47.040;15.498;2022-10-31T12:32:15;8.00;;;3.45;;
61036;SDS011;57313;47.040;15.498;2022-10-31T12:34:55;8.80;;;3.60;;
61036;SDS011;57313;47.040;15.498;2022-10-31T12:37:41;11.60;;;3.80;;
61036;SDS011;57313;47.040;15.498;2022-10-31T12:40:27;9.20;;;3.45;;
61036;SDS011;57313;47.040;15.498;2022-10-31T12:43:13;11.57;;;3.67;;
61036;SDS011;57313;47.040;15.498;2022-10-31T12:45:52;10.20;;;3.92;;
61036;SDS011;57313;47.040;15.498;2022-10-31T12:48:26;9.35;;;3.35;;
61036;SDS011;57313;47.040;15.498;2022-10-31T12:51:14;12.20;;;4.05;;
61036;SDS011;57313;47.040;15.498;2022-10-31T12:53:58;11.00;;;3.45;;
61036;SDS011;57313;47.040;15.498;2022-10-31T12:56:42;10.02;;;3.55;;
61036;SDS011;57313;47.040;15.498;2022-10-31T12:59:21;9.45;;;3.22;;
61036;SDS011;57313;47.040;15.498;2022-10-31T13:01:55;7.63;;;3.13;;
61036;SDS011;57313;47.040;15.498;2022-10-31T13:04:33;13.60;;;3.60;;
61036;SDS011;57313;47.040;15.498;2022-10-31T13:07:07;8.77;;;3.40;;
61036;SDS011;57313;47.040;15.498;2022-10-31T13:09:40;11.88;;;3.53;;
61036;SDS011;57313;47.040;15.498;2022-10-31T13:12:13;10.40;;;3.67;;
61036;SDS011;57313;47.040;15.498;2022-10-31T13:14:47;8.77;;;3.58;;
61036;SDS011;57313;47.040;15.498;2022-10-31T13:17:21;12.43;;;3.33;;
61036;SDS011;57313;47.040;15.498;2022-10-31T13:19:52;11.80;;;3.83;;
61036;SDS011;57313;47.040;15.498;2022-10-31T13:22:27;9.90;;;3.90;;
61036;SDS011;57313;47.040;15.498;2022-10-31T13:25:02;10.07;;;3.67;;
61036;SDS011;57313;47.040;15.498;2022-10-31T13:27:41;9.93;;;3.58;;
61036;SDS011;57313;47.040;15.498;2022-10-31T13:30:15;12.38;;;3.80;;
61036;SDS011;57313;47.040;15.498;2022-10-31T13:32:46;9.90;;;4.15;;
61036;SDS011;57313;47.040;15.498;2022-10-31T13:35:19;14.55;;;3.67;;
61036;SDS011;57313;47.040;15.498;2022-10-31T13:37:56;9.80;;;3.58;;
61036;SDS011;57313;47.040;15.498;2022-10-31T13:40:33;13.07;;;3.97;;
61036;SDS011;57313;47.040;15.498;2022-10-31T13:43:11;10.50;;;4.07;;
61036;SDS011;57313;47.040;15.498;2022-10-31T13:45:49;9.07;;;3.67;;
61036;SDS011;57313;47.040;15.498;2022-10-31T13:48:28;10.40;;;4.22;;
61036;SDS011;57313;47.040;15.498;2022-10-31T13:51:02;13.05;;;3.60;;
61036;SDS011;57313;47.040;15.498;2022-10-31T13:53:35;11.25;;;3.95;;
61036;SDS011;57313;47.040;15.498;2022-10-31T13:56:11;10.35;;;4.20;;
61036;SDS011;57313;47.040;15.498;2022-10-31T13:58:59;7.93;;;3.70;;
61036;SDS011;57313;47.040;15.498;2022-10-31T14:01:32;10.05;;;3.85;;
61036;SDS011;57313;47.040;15.498;2022-10-31T14:04:02;16.05;;;3.80;;
61036;SDS011;57313;47.040;15.498;2022-10-31T14:06:43;12.05;;;4.35;;
61036;SDS011;57313;47.040;15.498;2022-10-31T14:09:24;14.93;;;4.43;;
61036;SDS011;57313;47.040;15.498;2022-10-31T14:11:56;10.10;;;3.90;;
61036;SDS011;57313;47.040;15.498;2022-10-31T14:14:28;16.23;;;4.70;;
61036;SDS011;57313;47.040;15.498;2022-10-31T14:17:01;12.20;;;4.95;;
61036;SDS011;57313;47.040;15.498;2022-10-31T14:19:29;10.20;;;4.50;;
61036;SDS011;57313;47.040;15.498;2022-10-31T14:21:57;9.38;;;4.05;;
61036;SDS011;57313;47.040;15.498;2022-10-31T14:24:32;9.98;;;4.05;;
61036;SDS011;57313;47.040;15.498;2022-10-31T14:27:03;10.48;;;4.10;;
61036;SDS011;57313;47.040;15.498;2022-10-31T14:29:51;10.73;;;4.03;;
61036;SDS011;57313;47.040;15.498;2022-10-31T14:32:22;10.57;;;4.07;;
61036;SDS011;57313;47.040;15.498;2022-10-31T14:34:52;11.45;;;4.60;;
61036;SDS011;57313;47.040;15.498;2022-10-31T14:37:33;11.43;;;4.03;;
61036;SDS011;57313;47.040;15.498;2022-10-31T14:43:15;9.90;;;4.07;;
61036;SDS011;57313;47.040;15.498;2022-10-31T14:46:03;10.75;;;4.30;;
61036;SDS011;57313;47.040;15.498;2022-10-31T14:51:38;9.30;;;4.18;;
61036;SDS011;57313;47.040;15.498;2022-10-31T14:54:10;13.70;;;4.85;;
61036;SDS011;57313;47.040;15.498;2022-10-31T14:56:46;9.85;;;3.83;;
61036;SDS011;57313;47.040;15.498;2022-10-31T14:59:18;12.00;;;4.15;;
61036;SDS011;57313;47.040;15.498;2022-10-31T15:01:52;9.55;;;3.90;;
61036;SDS011;57313;47.040;15.498;2022-10-31T15:04:24;11.70;;;4.70;;
61036;SDS011;57313;47.040;15.498;2022-10-31T15:06:57;10.23;;;4.35;;
61036;SDS011;57313;47.040;15.498;2022-10-31T15:09:30;9.90;;;4.60;;
61036;SDS011;57313;47.040;15.498;2022-10-31T15:12:00;11.20;;;4.45;;